Time;durP1;ratioP1;P1;durP2;ratioP2;P2;SDS_P1;SDS_P2;PMS_P1;PMS_P2;Temp;Humidity;BMP_temperature;BMP_pressure;BME280_temperature;BME280_humidity;BME280_pressure;Samples;Min_cycle;Max_cycle;Signal;HPM_P1;HPM_P2
2021/08/27 00:01:37;;;;;;;12.98;2.85;;;;;;;24.11;37.29;101556.94;4428356;32;20494;-68
2021/08/27 00:04:02;;;;;;;9.90;2.80;;;;;;;24.06;37.39;101555.59;4427281;32;20041;-68
2021/08/27 00:06:28;;;;;;;11.82;3.37;;;;;;;24.07;37.55;101550.62;4427177;32;20474;-68
2021/08/27 00:08:54;;;;;;;11.12;2.62;;;;;;;24.28;37.13;101552.06;4429596;32;20105;-68
2021/08/27 00:11:20;;;;;;;10.40;3.45;;;;;;;24.27;37.02;101551.25;4427026;32;20064;-68
2021/08/27 00:13:46;;;;;;;9.52;2.80;;;;;;;24.35;36.94;101555.25;4426637;32;20390;-68
2021/08/27 00:16:12;;;;;;;7.70;2.50;;;;;;;24.19;37.03;101553.06;4426740;32;20148;-68
2021/08/27 00:18:38;;;;;;;9.52;3.50;;;;;;;23.42;38.50;101556.13;4427712;32;20068;-68
2021/08/27 00:21:03;;;;;;;9.50;3.47;;;;;;;23.17;38.94;101556.09;4428668;32;20026;-67
2021/08/27 00:23:29;;;;;;;14.75;3.45;;;;;;;23.63;38.42;101562.56;4424578;32;20056;-68
2021/08/27 00:25:55;;;;;;;10.00;3.40;;;;;;;23.83;38.02;101553.81;4429812;32;20374;-68
2021/08/27 00:28:20;;;;;;;14.30;2.80;;;;;;;23.77;38.27;101550.12;4429038;32;20421;-68
2021/08/27 00:30:46;;;;;;;8.20;2.80;;;;;;;23.64;38.71;101557.59;4427618;32;20077;-68
2021/08/27 00:33:12;;;;;;;11.80;3.05;;;;;;;23.71;38.53;101551.41;4425603;32;20041;-68
2021/08/27 00:35:41;;;;;;;8.73;2.62;;;;;;;23.78;38.45;101551.72;4426793;32;20096;-68
2021/08/27 00:38:07;;;;;;;8.52;3.42;;;;;;;23.29;39.44;101549.19;4427936;32;20015;-68
2021/08/27 00:40:33;;;;;;;10.77;3.10;;;;;;;23.54;39.05;101548.37;4429372;32;20089;-68
2021/08/27 00:42:59;;;;;;;9.65;2.85;;;;;;;23.47;39.05;101554.56;4424843;32;20393;-68
2021/08/27 00:45:25;;;;;;;5.90;2.70;;;;;;;23.56;38.97;101562.22;4426054;32;20082;-68
2021/08/27 00:47:51;;;;;;;14.05;3.12;;;;;;;23.67;38.67;101548.75;4427601;32;20087;-68
2021/08/27 00:50:17;;;;;;;11.90;3.10;;;;;;;23.80;38.52;101545.47;4428688;32;20044;-68
2021/08/27 00:52:43;;;;;;;6.03;2.85;;;;;;;23.93;38.35;101537.19;4426758;32;20018;-68
2021/08/27 00:55:09;;;;;;;10.20;3.28;;;;;;;23.95;38.46;101534.59;4428263;32;20096;-67
2021/08/27 00:57:36;;;;;;;12.88;3.70;;;;;;;24.14;38.25;101538.66;4426002;32;20052;-67
2021/08/27 01:00:04;;;;;;;10.85;2.80;;;;;;;23.97;38.38;101538.56;4428735;32;20045;-67
2021/08/27 01:02:30;;;;;;;7.82;3.22;;;;;;;24.33;37.89;101537.69;4426733;32;20081;-68
2021/08/27 01:04:57;;;;;;;16.48;3.78;;;;;;;24.22;37.83;101533.97;4428547;32;20537;-68
2021/08/27 01:07:46;;;;;;;8.65;3.37;;;;;;;24.12;37.93;101536.28;4425813;32;20081;-67
2021/08/27 01:10:31;;;;;;;13.45;3.80;;;;;;;24.21;37.68;101538.94;4428003;32;20033;-68
2021/08/27 01:15:41;;;;;;;12.90;4.28;;;;;;;24.61;37.49;101526.34;3977597;32;15149491;-68
2021/08/27 01:18:34;;;;;;;7.93;3.67;;;;;;;24.61;37.49;101526.34;4442925;32;20483;-67
2021/08/27 01:23:59;;;;;;;11.12;3.30;;;;;;;24.19;37.78;101523.50;3958505;32;15724447;-66
2021/08/27 01:26:32;;;;;;;10.43;3.65;;;;;;;24.07;37.89;101522.66;4436076;32;20079;-68
2021/08/27 01:28:58;;;;;;;10.18;3.50;;;;;;;24.23;37.71;101524.84;4434593;32;20053;-68
2021/08/27 01:31:45;;;;;;;10.07;3.42;;;;;;;24.14;37.75;101527.16;4434174;32;20033;-68
2021/08/27 01:34:35;;;;;;;8.95;3.10;;;;;;;24.09;37.97;101528.69;4433258;32;20437;-68
2021/08/27 01:37:04;;;;;;;9.10;3.25;;;;;;;24.40;37.42;101527.81;4435698;32;20568;-68
2021/08/27 01:39:35;;;;;;;15.00;3.87;;;;;;;24.31;37.65;101513.62;4434616;32;20398;-67
2021/08/27 01:42:03;;;;;;;8.30;3.12;;;;;;;24.55;37.30;101514.00;4433509;32;20088;-68
2021/08/27 01:44:30;;;;;;;9.45;3.12;;;;;;;24.50;37.34;101520.53;4437324;32;20092;-67
2021/08/27 01:46:58;;;;;;;15.15;3.50;;;;;;;24.51;37.30;101525.75;4431000;32;20069;-67
2021/08/27 01:49:27;;;;;;;10.40;3.95;;;;;;;24.33;37.48;101508.94;4436287;32;20029;-68
2021/08/27 01:51:54;;;;;;;9.43;3.30;;;;;;;24.36;37.53;101516.53;4435032;32;20101;-68
2021/08/27 01:54:21;;;;;;;9.43;3.37;;;;;;;24.33;37.57;101517.56;4436381;32;20073;-67
2021/08/27 01:56:51;;;;;;;14.13;3.37;;;;;;;24.33;37.68;101523.31;4432923;32;20092;-67
2021/08/27 01:59:18;;;;;;;13.45;3.55;;;;;;;24.48;37.44;101517.38;4439311;32;20117;-68
2021/08/27 02:01:45;;;;;;;9.05;3.25;;;;;;;24.28;37.75;101524.09;4433677;32;20018;-68
2021/08/27 02:04:14;;;;;;;11.82;3.80;;;;;;;24.48;37.39;101523.91;4433439;32;20581;-68
2021/08/27 02:06:42;;;;;;;10.18;3.75;;;;;;;24.60;37.31;101522.66;4436218;32;20033;-68
2021/08/27 02:09:08;;;;;;;10.40;3.70;;;;;;;24.36;37.77;101519.41;4436091;32;20037;-68
2021/08/27 02:11:36;;;;;;;12.73;3.33;;;;;;;24.38;37.61;101527.53;4431751;32;20486;-68
2021/08/27 02:14:02;;;;;;;9.85;3.45;;;;;;;24.33;37.75;101520.44;4434887;32;20391;-68
2021/08/27 02:16:28;;;;;;;14.73;4.35;;;;;;;24.37;37.72;101520.19;4436911;32;20124;-68
2021/08/27 02:18:55;;;;;;;12.80;3.50;;;;;;;24.33;37.87;101536.94;4433442;32;20022;-68
2021/08/27 02:21:23;;;;;;;11.88;3.40;;;;;;;24.38;37.90;101518.88;4434752;32;20111;-68
2021/08/27 02:23:52;;;;;;;12.00;4.00;;;;;;;24.45;37.83;101533.56;4434421;32;20425;-68
2021/08/27 02:26:18;;;;;;;15.82;4.07;;;;;;;24.54;37.74;101524.72;4430949;32;20123;-68
2021/08/27 02:28:47;;;;;;;11.05;3.90;;;;;;;24.31;37.93;101534.56;4438329;32;20069;-68
2021/08/27 02:31:13;;;;;;;13.05;4.12;;;;;;;24.22;38.38;101534.78;4433273;32;20045;-68
2021/08/27 02:33:43;;;;;;;11.27;3.95;;;;;;;24.08;38.61;101540.72;4430533;32;20182;-68
2021/08/27 02:36:12;;;;;;;17.00;4.43;;;;;;;24.30;38.36;101546.59;4423944;32;20063;-68
2021/08/27 02:38:39;;;;;;;11.23;3.80;;;;;;;24.18;38.54;101537.12;4423474;32;20056;-68
2021/08/27 02:41:05;;;;;;;14.98;4.10;;;;;;;24.20;38.54;101539.47;4425581;32;20162;-68
2021/08/27 02:43:31;;;;;;;12.48;4.25;;;;;;;24.11;38.61;101554.06;4424435;32;20467;-68
2021/08/27 02:45:56;;;;;;;11.80;4.62;;;;;;;24.02;38.70;101542.75;4424474;32;20081;-68
2021/08/27 02:48:22;;;;;;;15.30;4.20;;;;;;;23.76;39.21;101537.06;4425232;32;20033;-68
2021/08/27 02:50:57;;;;;;;14.48;4.43;;;;;;;23.91;39.09;101537.69;4422123;32;20093;-68
2021/08/27 02:53:29;;;;;;;15.35;4.62;;;;;;;24.16;38.80;101531.09;4422952;32;20493;-68
2021/08/27 02:56:02;;;;;;;16.15;4.82;;;;;;;24.31;38.37;101537.44;4422641;32;20077;-68
2021/08/27 02:58:32;;;;;;;11.88;4.37;;;;;;;24.35;38.34;101543.72;4422757;32;20659;-68
2021/08/27 03:03:38;;;;;;;15.05;3.92;;;;;;;24.80;37.73;101553.38;3983902;32;15022188;-68
2021/08/27 03:06:17;;;;;;;19.83;4.12;;;;;;;24.80;37.73;101553.38;4439528;32;20108;-68
2021/08/27 03:08:51;;;;;;;11.85;3.95;;;;;;;24.60;37.88;101537.03;4434894;32;20143;-68
2021/08/27 03:11:26;;;;;;;14.02;4.70;;;;;;;24.34;38.21;101536.41;4438967;32;20038;-68
2021/08/27 03:14:07;;;;;;;12.93;4.20;;;;;;;24.20;38.68;101542.34;4437462;32;20469;-68
2021/08/27 03:16:38;;;;;;;11.35;4.37;;;;;;;24.35;38.42;101543.72;4437160;32;20017;-68
2021/08/27 03:19:10;;;;;;;9.35;4.40;;;;;;;24.27;38.53;101536.88;4437405;32;20025;-68
2021/08/27 03:21:41;;;;;;;15.40;4.65;;;;;;;24.21;38.69;101536.06;4438594;32;20093;-68
2021/08/27 03:24:14;;;;;;;11.52;4.18;;;;;;;24.28;38.75;101543.44;4441367;32;20131;-68
2021/08/27 03:26:42;;;;;;;15.20;4.32;;;;;;;24.48;38.31;101540.41;4439684;32;20033;-68
2021/08/27 03:29:12;;;;;;;14.45;4.37;;;;;;;23.67;39.71;101540.12;4437123;32;20051;-68
2021/08/27 03:31:39;;;;;;;14.32;4.35;;;;;;;23.94;39.22;101544.50;4438155;32;20077;-68
2021/08/27 03:34:05;;;;;;;11.02;4.20;;;;;;;23.89;39.27;101543.16;4437980;32;20064;-68
2021/08/27 03:36:32;;;;;;;12.45;4.50;;;;;;;23.78;39.45;101533.66;4440514;32;20534;-68
2021/08/27 03:39:04;;;;;;;20.23;4.85;;;;;;;24.06;39.16;101537.56;4439116;32;20063;-68
2021/08/27 03:41:34;;;;;;;12.55;4.25;;;;;;;23.58;39.89;101530.88;4434947;32;20108;-68
2021/08/27 03:44:01;;;;;;;15.20;4.18;;;;;;;24.01;39.22;101541.16;4435234;32;20081;-68
2021/08/27 03:46:28;;;;;;;18.23;4.35;;;;;;;23.78;39.65;101531.59;4440461;32;20025;-68
2021/08/27 03:48:54;;;;;;;13.93;4.87;;;;;;;23.58;39.78;101531.69;4439217;32;20374;-68
2021/08/27 03:51:21;;;;;;;9.80;3.87;;;;;;;23.51;40.16;101549.41;4438958;32;20064;-68
2021/08/27 03:53:48;;;;;;;12.37;3.95;;;;;;;23.48;40.12;101545.44;4439319;32;20738;-68
2021/08/27 03:56:14;;;;;;;13.00;4.40;;;;;;;23.72;39.66;101541.47;4440173;32;20056;-68
2021/08/27 03:58:41;;;;;;;17.00;4.78;;;;;;;23.70;39.71;101541.19;4436022;32;20041;-68
2021/08/27 04:01:07;;;;;;;8.98;3.90;;;;;;;23.70;39.70;101535.44;4437177;32;20077;-68
2021/08/27 04:03:35;;;;;;;13.00;4.03;;;;;;;23.61;39.83;101527.00;4441787;32;20045;-68
2021/08/27 04:08:40;;;;;;;13.55;4.50;;;;;;;24.07;39.64;101528.41;3957079;32;15728555;-68
2021/08/27 04:11:08;;;;;;;21.52;5.00;;;;;;;24.07;39.64;101528.41;4435041;32;20037;-68
2021/08/27 04:13:34;;;;;;;16.10;4.12;;;;;;;23.84;39.62;101529.53;4434067;32;20103;-68
2021/08/27 04:16:00;;;;;;;15.07;4.55;;;;;;;23.59;39.91;101523.84;4437454;32;20041;-68
2021/08/27 04:18:26;;;;;;;21.60;4.15;;;;;;;23.89;39.64;101519.34;4435868;32;20056;-68
2021/08/27 04:20:51;;;;;;;12.93;3.83;;;;;;;23.91;39.40;101531.16;4432055;32;20116;-68
2021/08/27 04:23:17;;;;;;;11.98;3.40;;;;;;;23.75;39.55;101518.25;4435282;32;20030;-68
2021/08/27 04:25:43;;;;;;;13.60;4.28;;;;;;;23.55;40.18;101518.34;4434186;32;20069;-68
2021/08/27 04:28:09;;;;;;;13.50;4.10;;;;;;;23.79;39.69;101518.78;4432931;32;20067;-68
2021/08/27 04:30:35;;;;;;;10.38;3.15;;;;;;;23.70;39.72;101515.31;4437425;32;20120;-68
2021/08/27 04:33:01;;;;;;;11.75;4.03;;;;;;;23.94;39.58;101521.50;4435076;32;20462;-68
2021/08/27 04:35:28;;;;;;;9.18;3.70;;;;;;;24.08;39.40;101517.72;4418476;32;20403;-68
2021/08/27 04:37:54;;;;;;;12.40;3.50;;;;;;;22.92;41.56;101513.81;4433284;32;20066;-68
2021/08/27 04:40:21;;;;;;;13.85;3.22;;;;;;;23.58;40.21;101511.56;4430612;32;20064;-68
2021/08/27 04:42:47;;;;;;;11.65;3.53;;;;;;;23.90;39.72;101518.84;4434764;32;20160;-68
2021/08/27 04:45:13;;;;;;;11.45;3.33;;;;;;;23.85;39.68;101511.00;4435283;32;20422;-68
2021/08/27 04:47:38;;;;;;;11.15;3.67;;;;;;;23.91;39.52;101511.81;4433552;32;20064;-68
2021/08/27 04:50:06;;;;;;;10.52;3.30;;;;;;;23.96;39.61;101519.69;4435699;32;20033;-68
2021/08/27 04:52:31;;;;;;;10.63;3.47;;;;;;;24.14;39.25;101510.66;4434573;32;20045;-68
2021/08/27 04:54:57;;;;;;;10.80;2.95;;;;;;;23.72;40.03;101519.28;4433678;32;20138;-68
2021/08/27 04:57:23;;;;;;;10.35;3.17;;;;;;;24.10;39.22;101515.88;4433411;32;20099;-68
2021/08/27 04:59:51;;;;;;;14.73;3.53;;;;;;;23.94;39.38;101518.63;4436318;32;20433;-68
2021/08/27 05:02:17;;;;;;;10.32;2.83;;;;;;;23.95;39.70;101520.22;4434071;32;20034;-68
2021/08/27 05:04:43;;;;;;;13.30;3.62;;;;;;;24.07;39.18;101521.87;4436823;32;20138;-68
2021/08/27 05:07:08;;;;;;;9.57;2.95;;;;;;;24.14;39.17;101524.28;4419399;32;20088;-68
2021/08/27 05:09:34;;;;;;;14.65;3.85;;;;;;;24.11;39.12;101523.19;4430724;32;20411;-68
2021/08/27 05:12:00;;;;;;;12.10;3.72;;;;;;;24.06;39.02;101528.94;4430024;32;20192;-68
2021/08/27 05:14:26;;;;;;;14.27;3.60;;;;;;;24.14;38.82;101530.03;4433923;32;20153;-68
2021/08/27 05:16:51;;;;;;;9.63;3.33;;;;;;;24.28;38.70;101526.16;4415908;32;20110;-68
2021/08/27 05:19:17;;;;;;;10.50;3.35;;;;;;;24.16;38.77;101531.09;4426683;32;20439;-68
2021/08/27 05:21:42;;;;;;;11.85;4.05;;;;;;;24.11;38.98;101537.56;4419747;32;20098;-68
2021/08/27 05:24:08;;;;;;;9.88;3.45;;;;;;;24.02;39.23;101539.88;4421876;32;20092;-68
2021/08/27 05:26:35;;;;;;;14.00;3.62;;;;;;;24.14;38.92;101545.19;4422582;32;20362;-68
2021/08/27 05:29:03;;;;;;;14.43;4.03;;;;;;;24.27;38.90;101554.12;4424095;32;20434;-68
2021/08/27 05:31:30;;;;;;;11.18;3.90;;;;;;;24.39;38.77;101555.00;4421530;32;20060;-68
2021/08/27 05:33:55;;;;;;;13.85;3.75;;;;;;;24.03;39.21;101556.63;4424724;32;20346;-68
2021/08/27 05:36:21;;;;;;;11.05;4.05;;;;;;;24.09;39.17;101553.78;4422314;32;20034;-68
2021/08/27 05:38:47;;;;;;;11.77;3.95;;;;;;;23.96;39.06;101554.22;4422195;32;20022;-68
2021/08/27 05:41:14;;;;;;;10.05;3.85;;;;;;;23.99;39.24;101556.06;4423031;32;20097;-68
2021/08/27 05:43:39;;;;;;;13.05;3.62;;;;;;;24.34;38.83;101559.44;4420261;32;20547;-68
2021/08/27 05:46:05;;;;;;;13.62;4.15;;;;;;;24.17;38.96;101554.88;4423939;32;20018;-68
2021/08/27 05:48:32;;;;;;;14.20;3.90;;;;;;;24.24;38.87;101566.69;4424701;32;20468;-68
2021/08/27 05:50:58;;;;;;;11.00;3.92;;;;;;;24.36;38.65;101565.44;4421987;32;20384;-67
2021/08/27 05:53:23;;;;;;;12.30;3.85;;;;;;;24.40;38.55;101565.22;4422776;32;20099;-68
2021/08/27 05:55:49;;;;;;;10.63;3.53;;;;;;;24.42;38.57;101569.13;4421883;32;20070;-68
2021/08/27 05:58:15;;;;;;;11.55;3.33;;;;;;;24.48;38.43;101572.06;4424735;32;20425;-67
2021/08/27 06:00:41;;;;;;;12.37;3.85;;;;;;;24.21;38.79;101570.56;4421885;32;20123;-68
2021/08/27 06:03:07;;;;;;;7.57;3.42;;;;;;;24.45;38.82;101579.63;4424498;32;20034;-68
2021/08/27 06:05:33;;;;;;;9.73;3.95;;;;;;;24.38;38.65;101580.09;4425501;32;20163;-68
2021/08/27 06:07:59;;;;;;;13.98;3.87;;;;;;;24.61;38.49;101584.66;4420080;32;20068;-67
2021/08/27 06:10:25;;;;;;;11.55;4.00;;;;;;;24.06;39.37;101578.63;4424737;32;20081;-68
2021/08/27 06:12:51;;;;;;;11.02;4.12;;;;;;;24.42;38.76;101589.28;4425858;32;20445;-68
2021/08/27 06:15:17;;;;;;;11.75;4.03;;;;;;;24.26;39.08;101592.84;4421782;32;20098;-68
2021/08/27 06:17:42;;;;;;;8.88;3.37;;;;;;;24.44;38.71;101595.31;4424167;32;20123;-67
2021/08/27 06:20:09;;;;;;;11.05;3.72;;;;;;;24.41;38.68;101593.47;4421576;32;20077;-68
2021/08/27 06:22:35;;;;;;;10.07;3.72;;;;;;;24.63;38.45;101596.47;4425160;32;20048;-68
2021/08/27 06:25:02;;;;;;;16.05;4.20;;;;;;;24.61;38.34;101601.94;4424278;32;20057;-67
2021/08/27 06:27:28;;;;;;;14.30;3.60;;;;;;;24.47;38.81;101602.13;4419142;32;20048;-67
2021/08/27 06:29:53;;;;;;;13.18;3.67;;;;;;;24.62;38.38;101600.66;4420601;32;20463;-67
2021/08/27 06:32:20;;;;;;;14.07;4.18;;;;;;;24.75;38.20;101597.31;4421143;32;20022;-67
2021/08/27 06:34:45;;;;;;;10.10;3.53;;;;;;;25.08;37.71;101594.56;4420081;32;20476;-68
2021/08/27 06:37:11;;;;;;;13.07;3.78;;;;;;;25.09;37.44;101604.78;4422200;32;20017;-67
2021/08/27 06:39:37;;;;;;;10.40;4.30;;;;;;;24.95;37.80;101606.56;4426294;32;20029;-67
2021/08/27 06:42:04;;;;;;;11.38;3.83;;;;;;;25.19;37.54;101600.38;4419825;32;20066;-67
2021/08/27 06:44:31;;;;;;;9.13;4.40;;;;;;;25.36;37.17;101604.09;4422631;32;20093;-67
2021/08/27 06:46:56;;;;;;;12.48;4.37;;;;;;;24.13;39.33;101594.59;4420078;32;20083;-67
2021/08/27 06:49:22;;;;;;;10.65;3.75;;;;;;;24.88;37.95;101604.19;4420025;32;20197;-68
2021/08/27 06:51:48;;;;;;;11.60;3.65;;;;;;;24.35;38.95;101600.47;4421867;32;20073;-67
2021/08/27 06:54:13;;;;;;;10.50;3.95;;;;;;;25.05;37.76;101610.00;4424625;32;20030;-67
2021/08/27 06:56:39;;;;;;;14.70;3.87;;;;;;;24.89;38.10;101602.91;4423887;32;20057;-67
2021/08/27 06:59:05;;;;;;;16.58;4.30;;;;;;;25.21;37.44;101606.37;4424852;32;20021;-67
2021/08/27 07:01:31;;;;;;;11.23;4.43;;;;;;;24.88;38.14;101592.66;4422731;32;20096;-67
2021/08/27 07:03:58;;;;;;;13.18;4.47;;;;;;;25.31;37.62;101599.91;4422653;32;20052;-68
2021/08/27 07:06:24;;;;;;;12.85;4.00;;;;;;;25.38;37.16;101598.63;4422309;32;20109;-67
2021/08/27 07:08:50;;;;;;;9.07;3.78;;;;;;;25.82;36.55;101601.53;4422683;32;20097;-67
2021/08/27 07:11:17;;;;;;;10.60;3.50;;;;;;;25.94;36.47;101608.88;4420491;32;20026;-68
2021/08/27 07:13:44;;;;;;;7.68;3.42;;;;;;;25.88;36.83;101599.44;4425578;32;20159;-67
2021/08/27 07:16:10;;;;;;;14.55;4.12;;;;;;;25.80;36.87;101597.59;4419403;32;20099;-67
2021/08/27 07:18:36;;;;;;;15.43;4.80;;;;;;;24.91;38.67;101603.16;4422733;32;20048;-67
2021/08/27 07:21:02;;;;;;;12.60;4.60;;;;;;;25.31;38.26;101608.53;4420651;32;20093;-67
2021/08/27 07:23:28;;;;;;;11.98;4.70;;;;;;;25.58;37.51;101604.13;4419824;32;20030;-67
2021/08/27 07:25:54;;;;;;;11.30;4.18;;;;;;;25.57;37.39;101604.66;4419012;32;20107;-67
2021/08/27 07:28:19;;;;;;;9.93;4.03;;;;;;;25.45;37.42;101598.09;4420244;32;20025;-67
2021/08/27 07:30:45;;;;;;;16.50;4.87;;;;;;;25.27;38.52;101601.44;4424623;32;20101;-67
2021/08/27 07:33:11;;;;;;;13.75;4.55;;;;;;;25.08;40.40;101606.91;4404609;32;20076;-67
2021/08/27 07:35:36;;;;;;;14.82;5.30;;;;;;;24.89;41.46;101608.66;4424002;32;20078;-67
2021/08/27 07:38:03;;;;;;;13.98;5.35;;;;;;;24.86;41.34;101594.50;4420924;32;20432;-67
2021/08/27 07:40:28;;;;;;;15.13;5.32;;;;;;;25.39;40.69;101605.94;4424781;32;20073;-67
2021/08/27 07:42:54;;;;;;;17.62;5.50;;;;;;;25.60;40.13;101609.37;4421858;32;20141;-67
2021/08/27 07:45:21;;;;;;;10.10;5.12;;;;;;;25.65;40.09;101615.16;4418877;32;20061;-67
2021/08/27 07:47:49;;;;;;;15.25;5.18;;;;;;;26.07;39.38;101614.13;4420393;32;20028;-67
2021/08/27 07:50:16;;;;;;;14.73;5.93;;;;;;;25.95;38.83;101618.31;4420944;32;20061;-67
2021/08/27 07:52:42;;;;;;;14.00;5.55;;;;;;;25.67;38.68;101612.53;4420807;32;20376;-67
2021/08/27 07:55:08;;;;;;;8.43;3.92;;;;;;;25.88;37.91;101628.28;4424548;32;20053;-67
2021/08/27 07:57:39;;;;;;;8.57;3.80;;;;;;;25.92;37.59;101623.00;4418795;32;20065;-67
2021/08/27 08:00:06;;;;;;;12.45;3.53;;;;;;;25.82;37.35;101615.94;4421488;32;20026;-69
2021/08/27 08:02:32;;;;;;;7.22;3.47;;;;;;;25.70;37.29;101617.25;4421936;32;20018;-66
2021/08/27 08:04:57;;;;;;;8.50;4.10;;;;;;;25.37;37.62;101616.44;4421184;32;20025;-67
2021/08/27 08:07:23;;;;;;;8.77;3.87;;;;;;;25.41;37.73;101628.47;4420318;32;20222;-67
2021/08/27 08:09:48;;;;;;;7.75;4.00;;;;;;;25.34;38.57;101624.78;4417369;32;20450;-67
2021/08/27 08:12:14;;;;;;;11.45;4.53;;;;;;;24.88;41.42;101632.22;4419420;32;20087;-67
2021/08/27 08:14:40;;;;;;;12.37;5.25;;;;;;;24.84;42.42;101632.44;4421364;32;21414;-67
2021/08/27 08:17:06;;;;;;;12.45;4.93;;;;;;;24.58;43.13;101619.47;4421999;32;20069;-67
2021/08/27 08:19:31;;;;;;;10.13;4.15;;;;;;;24.85;44.05;101615.97;4418112;32;20103;-67
2021/08/27 08:21:57;;;;;;;12.48;4.87;;;;;;;24.33;44.43;101620.37;4420582;32;20070;-67
2021/08/27 08:24:23;;;;;;;8.38;4.95;;;;;;;24.77;45.28;101621.44;4419175;32;20513;-67
2021/08/27 08:26:51;;;;;;;6.12;3.47;;;;;;;24.78;44.60;101617.25;4416895;32;20418;-67
2021/08/27 08:29:18;;;;;;;8.40;3.10;;;;;;;25.13;44.08;101619.75;4421523;32;20136;-67
2021/08/27 08:31:46;;;;;;;5.97;3.00;;;;;;;25.38;43.42;101624.56;4419021;32;20034;-67
2021/08/27 08:34:12;;;;;;;8.93;3.37;;;;;;;25.22;42.26;101628.16;4424264;32;20436;-67
2021/08/27 08:36:38;;;;;;;6.22;3.62;;;;;;;25.59;42.25;101622.22;4422692;32;20018;-68
2021/08/27 08:39:05;;;;;;;5.35;3.53;;;;;;;25.62;41.94;101626.94;4416819;32;20534;-69
2021/08/27 08:41:32;;;;;;;9.20;3.95;;;;;;;25.75;42.51;101630.09;4417966;32;20082;-67
2021/08/27 08:44:00;;;;;;;7.43;3.35;;;;;;;26.25;41.21;101630.91;4421119;32;20076;-67
2021/08/27 08:46:28;;;;;;;7.00;3.33;;;;;;;26.00;40.32;101629.06;4417340;32;20033;-68
2021/08/27 08:48:56;;;;;;;10.35;3.22;;;;;;;26.35;39.58;101632.22;4416884;32;20074;-67
2021/08/27 08:51:25;;;;;;;5.93;3.70;;;;;;;26.19;39.86;101633.78;4416760;32;20094;-68
2021/08/27 08:53:53;;;;;;;8.27;3.55;;;;;;;26.79;38.57;101632.12;4422247;32;20069;-67
2021/08/27 08:56:20;;;;;;;9.40;3.58;;;;;;;27.21;38.34;101640.31;4424555;32;20025;-67
2021/08/27 08:58:47;;;;;;;6.43;3.22;;;;;;;27.19;37.92;101643.75;4424949;32;20054;-67
2021/08/27 09:01:17;;;;;;;11.40;3.72;;;;;;;27.06;36.73;101634.09;4420687;32;20062;-67
2021/08/27 09:03:46;;;;;;;8.98;3.85;;;;;;;27.18;36.46;101639.28;4422948;32;20065;-67
2021/08/27 09:06:11;;;;;;;9.00;3.47;;;;;;;27.17;36.97;101649.28;4422362;32;20058;-67
2021/08/27 09:08:43;;;;;;;6.37;3.10;;;;;;;27.18;36.46;101644.28;4419959;32;20508;-67
2021/08/27 09:11:25;;;;;;;9.40;3.28;;;;;;;27.66;35.21;101640.84;4419795;32;20065;-67
2021/08/27 09:13:53;;;;;;;9.35;4.03;;;;;;;28.04;35.43;101649.25;4421497;32;20099;-67
2021/08/27 09:16:23;;;;;;;10.15;2.95;;;;;;;27.91;36.03;101654.91;4422099;32;20037;-67
2021/08/27 09:18:50;;;;;;;8.60;3.08;;;;;;;27.97;34.06;101649.84;4422310;32;20022;-68
2021/08/27 09:21:39;;;;;;;9.35;2.80;;;;;;;28.33;34.81;101651.38;4420457;32;20454;-67
2021/08/27 09:26:53;;;;;;;7.85;2.60;;;;;;;29.41;33.01;101651.97;3977649;32;15023307;-68
2021/08/27 09:29:39;;;;;;;7.53;2.87;;;;;;;29.41;33.01;101651.97;4428906;32;20037;-68
2021/08/27 09:35:06;;;;;;;7.57;2.10;;;;;;;28.77;33.66;101661.72;3972757;32;15014611;-68
2021/08/27 09:40:15;;;;;;;8.05;2.20;;;;;;;28.74;32.44;101669.41;3985762;32;15023138;-68
2021/08/27 09:45:31;;;;;;;4.60;1.92;;;;;;;29.00;32.19;101672.50;3999397;31;15016922;-67
2021/08/27 09:50:37;;;;;;;6.80;2.50;;;;;;;28.41;33.34;101669.72;3986366;32;15023746;-68
2021/08/27 09:53:05;;;;;;;8.43;2.80;;;;;;;28.41;33.34;101669.72;4439752;32;20664;-68
2021/08/27 09:55:34;;;;;;;7.50;2.35;;;;;;;28.24;33.25;101653.81;4440359;32;20738;-68
2021/08/27 09:58:06;;;;;;;7.37;2.60;;;;;;;28.13;33.00;101660.50;4436744;32;20580;-68
2021/08/27 10:00:35;;;;;;;8.00;2.28;;;;;;;28.44;32.75;101664.97;4440377;32;20033;-68
2021/08/27 10:03:16;;;;;;;4.47;2.30;;;;;;;27.39;33.86;101651.28;4439531;32;20544;-68
2021/08/27 10:05:43;;;;;;;4.70;2.12;;;;;;;28.19;32.78;101655.44;4441295;32;20042;-68
2021/08/27 10:08:27;;;;;;;7.90;1.98;;;;;;;27.82;33.15;101655.19;4437193;32;20088;-68
2021/08/27 10:10:56;;;;;;;5.87;2.08;;;;;;;28.47;31.83;101658.88;4435923;32;20048;-68
2021/08/27 10:13:23;;;;;;;4.90;1.67;;;;;;;29.16;31.41;101655.47;4434675;32;20029;-67
2021/08/27 10:15:50;;;;;;;3.70;2.00;;;;;;;28.58;31.22;101653.00;4440196;32;20029;-67
2021/08/27 10:18:16;;;;;;;9.98;4.53;;;;;;;29.48;30.67;101647.66;4441225;32;20149;-67
2021/08/27 10:20:45;;;;;;;11.07;3.20;;;;;;;29.80;30.15;101655.09;4442082;32;20120;-67
2021/08/27 10:23:15;;;;;;;9.80;2.75;;;;;;;30.44;29.17;101653.72;4440250;32;20077;-67
2021/08/27 10:25:41;;;;;;;5.15;2.53;;;;;;;31.01;28.08;101649.19;4432135;32;20033;-68
2021/08/27 10:28:08;;;;;;;7.75;2.30;;;;;;;31.22;27.73;101658.78;4441125;32;20072;-68
2021/08/27 10:30:51;;;;;;;5.62;2.35;;;;;;;31.22;27.38;101661.72;4439265;32;20097;-68
2021/08/27 10:33:39;;;;;;;5.78;2.03;;;;;;;30.91;27.33;101644.41;4438620;32;20122;-68
2021/08/27 10:41:37;;;;;;;7.07;1.58;;;;;;;29.53;29.56;101664.19;3962435;32;15022157;-67
2021/08/27 10:44:06;;;;;;;7.82;2.00;;;;;;;29.53;29.56;101664.19;4416385;32;20088;-68
2021/08/27 10:58:00;;;;;;;3.28;1.42;;;;;;;30.37;29.35;101659.44;3989105;32;15023835;-68
2021/08/27 11:00:32;;;;;;;6.05;1.50;;;;;;;29.66;30.26;101665.06;4435434;32;20037;-68
2021/08/27 11:02:59;;;;;;;5.65;1.45;;;;;;;29.12;32.26;101663.72;4438886;32;20044;-68
2021/08/27 11:05:46;;;;;;;5.68;1.60;;;;;;;28.89;32.60;101661.06;4440802;32;20033;-68
2021/08/27 11:08:16;;;;;;;2.95;1.65;;;;;;;29.18;32.07;101664.44;4440565;32;20100;-68
2021/08/27 11:11:04;;;;;;;2.60;1.58;;;;;;;29.07;32.31;101667.44;4439166;32;20131;-68
2021/08/27 11:13:35;;;;;;;4.10;1.65;;;;;;;29.20;32.10;101661.78;4436092;32;20034;-68
2021/08/27 11:19:26;;;;;;;4.82;1.60;;;;;;;30.08;30.72;101675.75;3982129;32;15028483;-68
2021/08/27 11:31:00;;;;;;;8.82;1.90;;;;;;;30.44;30.55;101674.06;3969671;32;15028050;-69
2021/08/27 11:36:19;;;;;;;6.60;1.90;;;;;;;30.04;31.39;101672.41;4008181;31;15017773;-68
2021/08/27 11:38:54;;;;;;;5.97;2.00;;;;;;;30.04;31.39;101672.41;4466703;32;20028;-69
2021/08/27 11:41:23;;;;;;;7.68;2.35;;;;;;;29.87;31.22;101668.97;4466134;32;20073;-68
2021/08/27 11:44:01;;;;;;;5.90;1.87;;;;;;;29.68;31.54;101673.22;4460671;32;20068;-68
2021/08/27 11:46:27;;;;;;;3.08;1.70;;;;;;;30.21;30.66;101663.41;4467845;32;20076;-68
2021/08/27 11:49:14;;;;;;;4.18;1.67;;;;;;;30.37;30.16;101662.34;4469004;32;20232;-68
2021/08/27 11:54:37;;;;;;;5.55;2.12;;;;;;;31.04;28.28;101659.72;3974618;32;15031201;-67
2021/08/27 11:57:03;;;;;;;5.53;2.40;;;;;;;30.72;28.63;101654.00;4429211;32;20030;-69
2021/08/27 11:59:29;;;;;;;3.45;2.22;;;;;;;31.10;28.36;101657.47;4422816;32;20065;-67
2021/08/27 12:01:55;;;;;;;6.97;2.70;;;;;;;31.09;28.49;101663.84;4425369;32;20064;-68
2021/08/27 12:04:23;;;;;;;6.75;2.37;;;;;;;30.70;28.89;101659.59;4426109;32;20038;-68
2021/08/27 12:07:03;;;;;;;4.50;2.08;;;;;;;31.11;28.11;101667.00;4426743;32;20107;-68
2021/08/27 12:09:29;;;;;;;4.70;2.17;;;;;;;31.02;28.05;101658.72;4425857;32;20023;-68
2021/08/27 12:11:55;;;;;;;4.82;2.50;;;;;;;30.89;28.09;101658.72;4425061;32;20114;-70
2021/08/27 12:14:21;;;;;;;9.13;3.30;;;;;;;30.70;28.10;101655.88;4423506;32;20095;-68
2021/08/27 12:16:46;;;;;;;8.63;2.53;;;;;;;30.53;28.31;101661.25;4426184;32;20178;-67
2021/08/27 12:19:13;;;;;;;7.20;2.15;;;;;;;30.34;28.71;101658.41;4426640;32;20053;-67
2021/08/27 12:21:39;;;;;;;6.28;2.53;;;;;;;30.12;29.22;101655.09;4425701;32;20017;-67
2021/08/27 12:24:10;;;;;;;7.00;3.03;;;;;;;29.27;30.72;101649.53;4424166;32;20037;-67